Los Alamos, NM (87544)

10:47 AM MDT on March 29, 2015 (GMT -0600)
Alta Vista in White Rock | | Change Station
CLOSE
Current Station
Personal Weather Station
Location: White Rock, NM
Elevation: 6572 ft
Nearby Weather Stations

Elev 6572 ft 35.82 °N, 106.22 °W | Updated 1 second ago

Clear
Clear
61.8 °F
Feels Like 61.8 °F
N
11.5
Wind Variable Wind from NE
Gusts 11.5 mph

Today
High -- | Low -- °F
--% Chance of Precip.
Yesterday
High -- | Low -- °F
Precip. -- in
6:55 AM 7:24 PM
Waxing Gibbous, 72% visible
Pressure 30.34 in
Visibility 10.0 miles
Clouds Clear
Dew Point 26 °F
Humidity 26%
Rainfall 0.00 in
Snow Depth Not available.
UV 6 out of 12
Pollen 11.00 out of 12
Air Quality Not available.
Flu Activity Not available.
METAR KLAM 291635Z AUTO 05007G16KT 10SM CLR 15/M07 A3034 RMK AO2 T01461066

More Conditions Fewer Conditions

Pressure 30.34 in
Visibility 10.0 miles
Clouds Clear
Dew Point 26 °F
Humidity 26%
Rainfall 0.00 in
Snow Depth Not available.
UV 6 out of 12
Pollen 11.00 out of 12
Air Quality Not available.
Flu Activity Not available.
METAR KLAM 291635Z AUTO 05007G16KT 10SM CLR 15/M07 A3034 RMK AO2 T01461066

More Conditions Fewer Conditions

10-Day Weather Forecast

Almanac

Astronomy

Mar. 29, 2015 Rise Set
Actual Time
Civil Twilight
Nautical Twilight
Astronomical Twilight
Moon
Length of Visible Light
Length of Day
Tomorrow will be .
, % of the Moon is Illuminated

Today's Extremes

State Highs State Lows

Community

WunderPhotos

Upload Photos

1,809,289 photos uploaded!

WunderBlogs® & News

Nearby

Air Quality

  Air Quality AQ Index Pollutant
Not available.

Snow Depth

Station Depth Elevation

Earthquake Activity

City Distance Mag. Time & Date
Minimum magnitude displayed is 2.5.

Coastal Water Temperatures

Place Temperature

Stations

Nearby Weather Stations

Station Location Temp. Windchill Dew Point Humidity Wind Precip. Elev Updated Type